sensor_id;sensor_type;location;lat;lon;timestamp;P1;durP1;ratioP1;P2;durP2;ratioP2
7398;SDS011;3740;50.700;7.184;2023-09-08T00:02:17;6.18;;;5.55;;
7398;SDS011;3740;50.700;7.184;2023-09-08T00:04:43;6.10;;;5.60;;
7398;SDS011;3740;50.700;7.184;2023-09-08T00:07:08;6.45;;;5.78;;
7398;SDS011;3740;50.700;7.184;2023-09-08T00:09:34;6.18;;;5.68;;
7398;SDS011;3740;50.700;7.184;2023-09-08T00:11:59;6.13;;;5.57;;
7398;SDS011;3740;50.700;7.184;2023-09-08T00:14:26;6.63;;;5.97;;
7398;SDS011;3740;50.700;7.184;2023-09-08T00:16:52;6.45;;;5.88;;
7398;SDS011;3740;50.700;7.184;2023-09-08T00:19:20;6.03;;;5.45;;
7398;SDS011;3740;50.700;7.184;2023-09-08T00:21:46;6.88;;;6.15;;
7398;SDS011;3740;50.700;7.184;2023-09-08T00:24:12;6.03;;;5.50;;
7398;SDS011;3740;50.700;7.184;2023-09-08T00:26:37;5.88;;;5.38;;
7398;SDS011;3740;50.700;7.184;2023-09-08T00:29:03;6.43;;;5.82;;
7398;SDS011;3740;50.700;7.184;2023-09-08T00:31:28;6.30;;;5.70;;
7398;SDS011;3740;50.700;7.184;2023-09-08T00:33:54;6.03;;;5.43;;
7398;SDS011;3740;50.700;7.184;2023-09-08T00:36:20;6.15;;;5.55;;
7398;SDS011;3740;50.700;7.184;2023-09-08T00:38:45;6.00;;;5.50;;
7398;SDS011;3740;50.700;7.184;2023-09-08T00:41:11;6.53;;;5.93;;
7398;SDS011;3740;50.700;7.184;2023-09-08T00:43:36;7.22;;;5.72;;
7398;SDS011;3740;50.700;7.184;2023-09-08T00:46:02;5.88;;;5.38;;
7398;SDS011;3740;50.700;7.184;2023-09-08T00:48:28;6.40;;;5.90;;
7398;SDS011;3740;50.700;7.184;2023-09-08T00:50:54;6.68;;;6.00;;
7398;SDS011;3740;50.700;7.184;2023-09-08T00:53:20;6.30;;;5.70;;
7398;SDS011;3740;50.700;7.184;2023-09-08T00:55:46;6.38;;;5.80;;
7398;SDS011;3740;50.700;7.184;2023-09-08T00:58:13;6.28;;;5.68;;
7398;SDS011;3740;50.700;7.184;2023-09-08T01:00:39;6.13;;;5.53;;
7398;SDS011;3740;50.700;7.184;2023-09-08T01:03:04;6.38;;;5.78;;
7398;SDS011;3740;50.700;7.184;2023-09-08T01:05:30;6.30;;;5.75;;
7398;SDS011;3740;50.700;7.184;2023-09-08T01:07:55;6.00;;;5.50;;
7398;SDS011;3740;50.700;7.184;2023-09-08T01:10:24;6.40;;;5.80;;
7398;SDS011;3740;50.700;7.184;2023-09-08T01:12:49;6.15;;;5.65;;
7398;SDS011;3740;50.700;7.184;2023-09-08T01:15:15;6.25;;;5.75;;
7398;SDS011;3740;50.700;7.184;2023-09-08T01:17:40;6.68;;;6.00;;
7398;SDS011;3740;50.700;7.184;2023-09-08T01:20:09;6.40;;;5.78;;
7398;SDS011;3740;50.700;7.184;2023-09-08T01:25:55;5.85;;;5.35;;
7398;SDS011;3740;50.700;7.184;2023-09-08T01:28:26;6.13;;;5.55;;
7398;SDS011;3740;50.700;7.184;2023-09-08T01:30:52;6.05;;;5.55;;
7398;SDS011;3740;50.700;7.184;2023-09-08T01:33:20;6.25;;;5.75;;
7398;SDS011;3740;50.700;7.184;2023-09-08T01:35:47;5.80;;;5.40;;
7398;SDS011;3740;50.700;7.184;2023-09-08T01:38:14;5.75;;;5.28;;
7398;SDS011;3740;50.700;7.184;2023-09-08T01:40:39;6.25;;;5.65;;
7398;SDS011;3740;50.700;7.184;2023-09-08T01:43:05;6.05;;;5.63;;
7398;SDS011;3740;50.700;7.184;2023-09-08T01:45:30;6.35;;;5.75;;
7398;SDS011;3740;50.700;7.184;2023-09-08T01:47:56;6.00;;;5.40;;
7398;SDS011;3740;50.700;7.184;2023-09-08T01:50:21;7.00;;;5.15;;
7398;SDS011;3740;50.700;7.184;2023-09-08T01:52:49;6.43;;;5.93;;
7398;SDS011;3740;50.700;7.184;2023-09-08T01:55:15;6.30;;;5.72;;
7398;SDS011;3740;50.700;7.184;2023-09-08T01:57:41;6.40;;;5.80;;
7398;SDS011;3740;50.700;7.184;2023-09-08T02:00:08;6.53;;;5.93;;
7398;SDS011;3740;50.700;7.184;2023-09-08T02:02:34;5.88;;;5.38;;
7398;SDS011;3740;50.700;7.184;2023-09-08T02:05:00;5.85;;;5.35;;
7398;SDS011;3740;50.700;7.184;2023-09-08T02:07:25;6.00;;;5.50;;
7398;SDS011;3740;50.700;7.184;2023-09-08T02:09:51;5.88;;;5.40;;
7398;SDS011;3740;50.700;7.184;2023-09-08T02:12:16;6.28;;;5.63;;
7398;SDS011;3740;50.700;7.184;2023-09-08T02:14:42;6.38;;;5.85;;
7398;SDS011;3740;50.700;7.184;2023-09-08T02:17:07;6.28;;;5.72;;
7398;SDS011;3740;50.700;7.184;2023-09-08T02:19:33;6.47;;;5.88;;
7398;SDS011;3740;50.700;7.184;2023-09-08T02:21:58;6.57;;;5.93;;
7398;SDS011;3740;50.700;7.184;2023-09-08T02:24:24;6.45;;;5.95;;
7398;SDS011;3740;50.700;7.184;2023-09-08T02:26:49;6.07;;;5.57;;
7398;SDS011;3740;50.700;7.184;2023-09-08T02:29:15;6.03;;;5.43;;
7398;SDS011;3740;50.700;7.184;2023-09-08T02:31:41;6.03;;;5.35;;
7398;SDS011;3740;50.700;7.184;2023-09-08T02:34:06;6.47;;;5.43;;
7398;SDS011;3740;50.700;7.184;2023-09-08T02:36:32;5.75;;;5.28;;
7398;SDS011;3740;50.700;7.184;2023-09-08T02:38:57;6.00;;;5.40;;
7398;SDS011;3740;50.700;7.184;2023-09-08T02:41:23;6.32;;;5.63;;
7398;SDS011;3740;50.700;7.184;2023-09-08T02:43:49;7.63;;;6.10;;
7398;SDS011;3740;50.700;7.184;2023-09-08T02:46:15;6.40;;;5.82;;
7398;SDS011;3740;50.700;7.184;2023-09-08T02:48:41;6.05;;;5.57;;
7398;SDS011;3740;50.700;7.184;2023-09-08T02:51:07;6.85;;;6.25;;
7398;SDS011;3740;50.700;7.184;2023-09-08T02:53:32;7.97;;;6.20;;
7398;SDS011;3740;50.700;7.184;2023-09-08T02:55:59;6.28;;;5.78;;
7398;SDS011;3740;50.700;7.184;2023-09-08T02:58:25;5.70;;;5.15;;
7398;SDS011;3740;50.700;7.184;2023-09-08T03:00:51;6.45;;;5.63;;
7398;SDS011;3740;50.700;7.184;2023-09-08T03:03:20;6.22;;;5.72;;
7398;SDS011;3740;50.700;7.184;2023-09-08T03:05:46;6.78;;;6.28;;
7398;SDS011;3740;50.700;7.184;2023-09-08T03:08:11;6.78;;;6.22;;
7398;SDS011;3740;50.700;7.184;2023-09-08T03:10:37;6.07;;;5.57;;
7398;SDS011;3740;50.700;7.184;2023-09-08T03:13:03;6.20;;;5.70;;
7398;SDS011;3740;50.700;7.184;2023-09-08T03:15:29;5.88;;;5.40;;
7398;SDS011;3740;50.700;7.184;2023-09-08T03:17:55;6.15;;;5.55;;
7398;SDS011;3740;50.700;7.184;2023-09-08T03:20:21;6.20;;;5.70;;
7398;SDS011;3740;50.700;7.184;2023-09-08T03:22:46;5.93;;;5.43;;
7398;SDS011;3740;50.700;7.184;2023-09-08T03:25:15;5.93;;;5.43;;
7398;SDS011;3740;50.700;7.184;2023-09-08T03:27:41;6.55;;;5.95;;
7398;SDS011;3740;50.700;7.184;2023-09-08T03:30:06;6.20;;;5.70;;
7398;SDS011;3740;50.700;7.184;2023-09-08T03:32:33;6.05;;;5.55;;
7398;SDS011;3740;50.700;7.184;2023-09-08T03:34:58;6.47;;;5.82;;
7398;SDS011;3740;50.700;7.184;2023-09-08T03:37:24;6.22;;;5.63;;
7398;SDS011;3740;50.700;7.184;2023-09-08T03:39:51;6.50;;;6.00;;
7398;SDS011;3740;50.700;7.184;2023-09-08T03:42:17;6.40;;;5.90;;
7398;SDS011;3740;50.700;7.184;2023-09-08T03:44:42;6.18;;;5.57;;
7398;SDS011;3740;50.700;7.184;2023-09-08T03:47:08;6.43;;;5.93;;
7398;SDS011;3740;50.700;7.184;2023-09-08T03:49:33;5.50;;;5.10;;
7398;SDS011;3740;50.700;7.184;2023-09-08T03:51:59;7.10;;;5.90;;
7398;SDS011;3740;50.700;7.184;2023-09-08T03:54:24;7.03;;;6.40;;
7398;SDS011;3740;50.700;7.184;2023-09-08T03:56:50;6.15;;;5.65;;
7398;SDS011;3740;50.700;7.184;2023-09-08T03:59:15;6.18;;;5.68;;
7398;SDS011;3740;50.700;7.184;2023-09-08T04:01:41;6.57;;;6.00;;
7398;SDS011;3740;50.700;7.184;2023-09-08T04:04:07;6.63;;;6.03;;
7398;SDS011;3740;50.700;7.184;2023-09-08T04:06:33;6.68;;;5.97;;
7398;SDS011;3740;50.700;7.184;2023-09-08T04:08:59;7.10;;;6.40;;
7398;SDS011;3740;50.700;7.184;2023-09-08T04:11:24;6.70;;;5.60;;
7398;SDS011;3740;50.700;7.184;2023-09-08T04:13:50;6.47;;;5.88;;
7398;SDS011;3740;50.700;7.184;2023-09-08T04:16:16;6.63;;;6.03;;
7398;SDS011;3740;50.700;7.184;2023-09-08T04:18:42;5.70;;;5.30;;
7398;SDS011;3740;50.700;7.184;2023-09-08T04:21:07;6.68;;;5.95;;
7398;SDS011;3740;50.700;7.184;2023-09-08T04:23:33;6.65;;;6.03;;
7398;SDS011;3740;50.700;7.184;2023-09-08T04:25:59;7.25;;;6.35;;
7398;SDS011;3740;50.700;7.184;2023-09-08T04:28:24;6.47;;;5.97;;
7398;SDS011;3740;50.700;7.184;2023-09-08T04:30:50;6.43;;;5.90;;
7398;SDS011;3740;50.700;7.184;2023-09-08T04:33:15;6.70;;;6.15;;
7398;SDS011;3740;50.700;7.184;2023-09-08T04:35:41;6.63;;;5.70;;
7398;SDS011;3740;50.700;7.184;2023-09-08T04:38:06;6.05;;;5.53;;
7398;SDS011;3740;50.700;7.184;2023-09-08T04:40:32;6.57;;;5.78;;
7398;SDS011;3740;50.700;7.184;2023-09-08T04:42:58;7.20;;;5.60;;
7398;SDS011;3740;50.700;7.184;2023-09-08T04:45:24;6.18;;;5.60;;
7398;SDS011;3740;50.700;7.184;2023-09-08T04:47:49;5.97;;;5.55;;
7398;SDS011;3740;50.700;7.184;2023-09-08T04:50:15;6.70;;;6.10;;
7398;SDS011;3740;50.700;7.184;2023-09-08T04:52:41;8.55;;;6.38;;
7398;SDS011;3740;50.700;7.184;2023-09-08T04:55:06;6.40;;;5.90;;
7398;SDS011;3740;50.700;7.184;2023-09-08T04:57:32;6.32;;;5.82;;
7398;SDS011;3740;50.700;7.184;2023-09-08T04:59:58;6.85;;;6.00;;
7398;SDS011;3740;50.700;7.184;2023-09-08T05:02:23;6.15;;;5.65;;
7398;SDS011;3740;50.700;7.184;2023-09-08T05:04:49;6.85;;;6.20;;
7398;SDS011;3740;50.700;7.184;2023-09-08T05:07:14;9.85;;;6.22;;
7398;SDS011;3740;50.700;7.184;2023-09-08T05:09:40;6.30;;;5.80;;
7398;SDS011;3740;50.700;7.184;2023-09-08T05:12:06;6.80;;;6.20;;
7398;SDS011;3740;50.700;7.184;2023-09-08T05:14:31;6.57;;;5.95;;
7398;SDS011;3740;50.700;7.184;2023-09-08T05:16:57;6.47;;;5.95;;
7398;SDS011;3740;50.700;7.184;2023-09-08T05:19:22;6.68;;;6.07;;
7398;SDS011;3740;50.700;7.184;2023-09-08T05:21:53;6.60;;;5.90;;
7398;SDS011;3740;50.700;7.184;2023-09-08T05:24:19;6.80;;;6.20;;
7398;SDS011;3740;50.700;7.184;2023-09-08T05:26:45;6.53;;;6.00;;
7398;SDS011;3740;50.700;7.184;2023-09-08T05:29:11;6.55;;;5.90;;
7398;SDS011;3740;50.700;7.184;2023-09-08T05:31:37;6.55;;;5.95;;
7398;SDS011;3740;50.700;7.184;2023-09-08T05:34:02;6.47;;;5.88;;
7398;SDS011;3740;50.700;7.184;2023-09-08T05:36:28;6.53;;;6.00;;
7398;SDS011;3740;50.700;7.184;2023-09-08T05:38:55;6.85;;;6.07;;
7398;SDS011;3740;50.700;7.184;2023-09-08T05:41:20;8.15;;;6.10;;
7398;SDS011;3740;50.700;7.184;2023-09-08T05:43:46;6.47;;;5.97;;
7398;SDS011;3740;50.700;7.184;2023-09-08T05:46:11;6.68;;;6.07;;
7398;SDS011;3740;50.700;7.184;2023-09-08T05:48:38;6.63;;;5.95;;
7398;SDS011;3740;50.700;7.184;2023-09-08T05:51:03;7.03;;;6.43;;
7398;SDS011;3740;50.700;7.184;2023-09-08T05:53:30;6.90;;;6.30;;
7398;SDS011;3740;50.700;7.184;2023-09-08T05:55:56;6.95;;;6.25;;
7398;SDS011;3740;50.700;7.184;2023-09-08T05:58:22;7.03;;;6.32;;
7398;SDS011;3740;50.700;7.184;2023-09-08T06:00:49;7.32;;;6.65;;
7398;SDS011;3740;50.700;7.184;2023-09-08T06:03:14;8.60;;;7.03;;
7398;SDS011;3740;50.700;7.184;2023-09-08T06:05:40;8.13;;;7.45;;
7398;SDS011;3740;50.700;7.184;2023-09-08T06:08:05;6.95;;;6.35;;
7398;SDS011;3740;50.700;7.184;2023-09-08T06:10:31;7.70;;;7.00;;
7398;SDS011;3740;50.700;7.184;2023-09-08T06:12:57;8.07;;;7.32;;
7398;SDS011;3740;50.700;7.184;2023-09-08T06:15:22;10.70;;;8.02;;
7398;SDS011;3740;50.700;7.184;2023-09-08T06:17:48;7.85;;;7.18;;
7398;SDS011;3740;50.700;7.184;2023-09-08T06:20:13;10.55;;;7.97;;
7398;SDS011;3740;50.700;7.184;2023-09-08T06:22:41;8.70;;;7.90;;
7398;SDS011;3740;50.700;7.184;2023-09-08T06:25:06;9.40;;;7.80;;
7398;SDS011;3740;50.700;7.184;2023-09-08T06:27:32;9.35;;;8.55;;
7398;SDS011;3740;50.700;7.184;2023-09-08T06:29:58;8.98;;;7.80;;
7398;SDS011;3740;50.700;7.184;2023-09-08T06:32:23;8.90;;;8.07;;
7398;SDS011;3740;50.700;7.184;2023-09-08T06:34:49;8.68;;;7.78;;
7398;SDS011;3740;50.700;7.184;2023-09-08T06:37:14;15.00;;;8.52;;
7398;SDS011;3740;50.700;7.184;2023-09-08T06:39:40;11.07;;;8.50;;
7398;SDS011;3740;50.700;7.184;2023-09-08T06:42:05;8.48;;;7.68;;
7398;SDS011;3740;50.700;7.184;2023-09-08T06:44:31;8.00;;;7.30;;
7398;SDS011;3740;50.700;7.184;2023-09-08T06:46:57;8.40;;;7.45;;
7398;SDS011;3740;50.700;7.184;2023-09-08T06:49:22;7.40;;;6.80;;
7398;SDS011;3740;50.700;7.184;2023-09-08T06:51:48;7.75;;;6.97;;
7398;SDS011;3740;50.700;7.184;2023-09-08T06:54:14;8.13;;;7.20;;
7398;SDS011;3740;50.700;7.184;2023-09-08T06:56:39;8.43;;;7.15;;
7398;SDS011;3740;50.700;7.184;2023-09-08T06:59:05;7.47;;;6.88;;
7398;SDS011;3740;50.700;7.184;2023-09-08T07:01:30;6.68;;;6.05;;
7398;SDS011;3740;50.700;7.184;2023-09-08T07:03:56;7.57;;;6.93;;
7398;SDS011;3740;50.700;7.184;2023-09-08T07:06:21;7.63;;;6.93;;
7398;SDS011;3740;50.700;7.184;2023-09-08T07:08:47;7.35;;;6.75;;
7398;SDS011;3740;50.700;7.184;2023-09-08T07:11:16;7.40;;;6.80;;
7398;SDS011;3740;50.700;7.184;2023-09-08T07:13:42;6.72;;;6.13;;
7398;SDS011;3740;50.700;7.184;2023-09-08T07:16:07;6.72;;;6.03;;
7398;SDS011;3740;50.700;7.184;2023-09-08T07:18:33;7.32;;;6.50;;
7398;SDS011;3740;50.700;7.184;2023-09-08T07:21:01;6.75;;;5.97;;
7398;SDS011;3740;50.700;7.184;2023-09-08T07:23:27;6.85;;;6.25;;
7398;SDS011;3740;50.700;7.184;2023-09-08T07:25:52;6.85;;;6.25;;
7398;SDS011;3740;50.700;7.184;2023-09-08T07:28:18;6.88;;;6.28;;
7398;SDS011;3740;50.700;7.184;2023-09-08T07:30:44;7.30;;;6.70;;
7398;SDS011;3740;50.700;7.184;2023-09-08T07:33:09;7.72;;;6.95;;
7398;SDS011;3740;50.700;7.184;2023-09-08T07:35:38;9.32;;;6.65;;
7398;SDS011;3740;50.700;7.184;2023-09-08T07:38:05;7.40;;;6.80;;
7398;SDS011;3740;50.700;7.184;2023-09-08T07:40:34;7.68;;;6.88;;
7398;SDS011;3740;50.700;7.184;2023-09-08T07:43:00;8.02;;;7.05;;
7398;SDS011;3740;50.700;7.184;2023-09-08T07:45:25;8.63;;;7.30;;
7398;SDS011;3740;50.700;7.184;2023-09-08T07:47:51;8.52;;;7.20;;
7398;SDS011;3740;50.700;7.184;2023-09-08T07:50:18;7.90;;;7.10;;
7398;SDS011;3740;50.700;7.184;2023-09-08T07:52:47;7.90;;;7.10;;
7398;SDS011;3740;50.700;7.184;2023-09-08T07:55:14;8.40;;;6.70;;
7398;SDS011;3740;50.700;7.184;2023-09-08T07:57:41;9.15;;;7.53;;
7398;SDS011;3740;50.700;7.184;2023-09-08T08:00:08;7.63;;;6.82;;
7398;SDS011;3740;50.700;7.184;2023-09-08T08:02:35;6.82;;;6.20;;
7398;SDS011;3740;50.700;7.184;2023-09-08T08:05:01;7.80;;;6.30;;
7398;SDS011;3740;50.700;7.184;2023-09-08T08:07:27;6.88;;;6.28;;
7398;SDS011;3740;50.700;7.184;2023-09-08T08:09:54;6.60;;;6.00;;
7398;SDS011;3740;50.700;7.184;2023-09-08T08:12:20;6.80;;;6.28;;
7398;SDS011;3740;50.700;7.184;2023-09-08T08:14:46;5.90;;;5.40;;
7398;SDS011;3740;50.700;7.184;2023-09-08T08:17:11;6.90;;;6.20;;
7398;SDS011;3740;50.700;7.184;2023-09-08T08:19:37;6.90;;;6.25;;
7398;SDS011;3740;50.700;7.184;2023-09-08T08:22:03;6.97;;;6.28;;
7398;SDS011;3740;50.700;7.184;2023-09-08T08:24:28;6.90;;;6.20;;
7398;SDS011;3740;50.700;7.184;2023-09-08T08:26:54;6.45;;;5.82;;
7398;SDS011;3740;50.700;7.184;2023-09-08T08:29:19;6.63;;;6.00;;
7398;SDS011;3740;50.700;7.184;2023-09-08T08:31:45;6.13;;;5.63;;
7398;SDS011;3740;50.700;7.184;2023-09-08T08:34:10;7.13;;;5.80;;
7398;SDS011;3740;50.700;7.184;2023-09-08T08:36:36;6.13;;;5.50;;
7398;SDS011;3740;50.700;7.184;2023-09-08T08:39:02;6.43;;;5.82;;
7398;SDS011;3740;50.700;7.184;2023-09-08T08:41:28;6.78;;;5.60;;
7398;SDS011;3740;50.700;7.184;2023-09-08T08:43:54;6.32;;;5.72;;
7398;SDS011;3740;50.700;7.184;2023-09-08T08:46:21;6.28;;;5.68;;
7398;SDS011;3740;50.700;7.184;2023-09-08T08:48:48;6.25;;;5.70;;
7398;SDS011;3740;50.700;7.184;2023-09-08T08:51:15;6.80;;;6.15;;
7398;SDS011;3740;50.700;7.184;2023-09-08T08:53:43;6.85;;;6.25;;
7398;SDS011;3740;50.700;7.184;2023-09-08T08:56:09;7.32;;;6.00;;
7398;SDS011;3740;50.700;7.184;2023-09-08T08:58:36;7.57;;;6.25;;
7398;SDS011;3740;50.700;7.184;2023-09-08T09:01:04;5.85;;;5.35;;
7398;SDS011;3740;50.700;7.184;2023-09-08T09:03:30;5.93;;;5.40;;
7398;SDS011;3740;50.700;7.184;2023-09-08T09:05:57;7.60;;;5.50;;
7398;SDS011;3740;50.700;7.184;2023-09-08T09:08:24;6.10;;;5.22;;
7398;SDS011;3740;50.700;7.184;2023-09-08T09:10:51;5.80;;;5.30;;
7398;SDS011;3740;50.700;7.184;2023-09-08T09:13:17;6.30;;;5.70;;
7398;SDS011;3740;50.700;7.184;2023-09-08T09:15:42;6.28;;;5.35;;
7398;SDS011;3740;50.700;7.184;2023-09-08T09:18:09;5.70;;;5.15;;
7398;SDS011;3740;50.700;7.184;2023-09-08T09:20:34;6.07;;;5.50;;
7398;SDS011;3740;50.700;7.184;2023-09-08T09:23:01;5.80;;;5.30;;
7398;SDS011;3740;50.700;7.184;2023-09-08T09:25:28;5.55;;;5.05;;
7398;SDS011;3740;50.700;7.184;2023-09-08T09:27:56;5.50;;;5.00;;
7398;SDS011;3740;50.700;7.184;2023-09-08T09:30:24;5.70;;;5.20;;
7398;SDS011;3740;50.700;7.184;2023-09-08T09:33:03;5.60;;;5.10;;
7398;SDS011;3740;50.700;7.184;2023-09-08T09:35:45;5.60;;;5.00;;
7398;SDS011;3740;50.700;7.184;2023-09-08T09:38:13;7.05;;;5.40;;
7398;SDS011;3740;50.700;7.184;2023-09-08T09:40:39;6.53;;;5.38;;
7398;SDS011;3740;50.700;7.184;2023-09-08T09:43:05;5.38;;;4.88;;
7398;SDS011;3740;50.700;7.184;2023-09-08T09:45:33;5.65;;;5.00;;
7398;SDS011;3740;50.700;7.184;2023-09-08T09:47:59;7.75;;;5.47;;
7398;SDS011;3740;50.700;7.184;2023-09-08T09:50:28;5.55;;;5.03;;
7398;SDS011;3740;50.700;7.184;2023-09-08T09:52:57;5.53;;;4.80;;
7398;SDS011;3740;50.700;7.184;2023-09-08T09:55:24;5.97;;;5.22;;
7398;SDS011;3740;50.700;7.184;2023-09-08T09:57:51;5.72;;;5.22;;
7398;SDS011;3740;50.700;7.184;2023-09-08T10:00:23;5.40;;;4.90;;
7398;SDS011;3740;50.700;7.184;2023-09-08T10:02:51;5.70;;;5.10;;
7398;SDS011;3740;50.700;7.184;2023-09-08T10:05:17;5.38;;;4.85;;
7398;SDS011;3740;50.700;7.184;2023-09-08T10:07:43;7.00;;;5.30;;
7398;SDS011;3740;50.700;7.184;2023-09-08T10:10:15;6.20;;;5.30;;
7398;SDS011;3740;50.700;7.184;2023-09-08T10:12:42;5.32;;;4.82;;
7398;SDS011;3740;50.700;7.184;2023-09-08T10:15:10;5.75;;;5.18;;
7398;SDS011;3740;50.700;7.184;2023-09-08T10:17:36;5.18;;;4.68;;
7398;SDS011;3740;50.700;7.184;2023-09-08T10:20:03;6.63;;;5.10;;
7398;SDS011;3740;50.700;7.184;2023-09-08T10:22:36;5.47;;;4.97;;
7398;SDS011;3740;50.700;7.184;2023-09-08T10:25:06;6.05;;;5.20;;
7398;SDS011;3740;50.700;7.184;2023-09-08T10:27:33;6.20;;;4.60;;
7398;SDS011;3740;50.700;7.184;2023-09-08T10:30:01;5.38;;;4.90;;
7398;SDS011;3740;50.700;7.184;2023-09-08T10:32:29;5.57;;;5.07;;
7398;SDS011;3740;50.700;7.184;2023-09-08T10:34:57;5.20;;;4.70;;
7398;SDS011;3740;50.700;7.184;2023-09-08T10:37:26;5.53;;;5.03;;
7398;SDS011;3740;50.700;7.184;2023-09-08T10:39:55;4.63;;;4.22;;
7398;SDS011;3740;50.700;7.184;2023-09-08T10:42:22;5.07;;;4.68;;
7398;SDS011;3740;50.700;7.184;2023-09-08T10:49:56;4.90;;;4.40;;
7398;SDS011;3740;50.700;7.184;2023-09-08T10:52:24;4.43;;;4.03;;
7398;SDS011;3740;50.700;7.184;2023-09-08T10:54:51;4.20;;;3.90;;
7398;SDS011;3740;50.700;7.184;2023-09-08T10:57:21;4.47;;;4.05;;
7398;SDS011;3740;50.700;7.184;2023-09-08T10:59:54;4.38;;;4.07;;
7398;SDS011;3740;50.700;7.184;2023-09-08T11:02:41;4.72;;;4.30;;
7398;SDS011;3740;50.700;7.184;2023-09-08T11:05:13;4.90;;;4.50;;
7398;SDS011;3740;50.700;7.184;2023-09-08T11:07:41;4.25;;;3.83;;
7398;SDS011;3740;50.700;7.184;2023-09-08T11:10:11;4.70;;;4.20;;
7398;SDS011;3740;50.700;7.184;2023-09-08T11:12:37;5.25;;;4.75;;
7398;SDS011;3740;50.700;7.184;2023-09-08T11:15:04;4.70;;;4.30;;
7398;SDS011;3740;50.700;7.184;2023-09-08T11:17:32;4.30;;;4.00;;
7398;SDS011;3740;50.700;7.184;2023-09-08T11:19:59;4.15;;;3.85;;
7398;SDS011;3740;50.700;7.184;2023-09-08T11:22:25;6.68;;;4.70;;
7398;SDS011;3740;50.700;7.184;2023-09-08T11:24:52;4.68;;;4.30;;
7398;SDS011;3740;50.700;7.184;2023-09-08T11:27:19;4.50;;;4.20;;
7398;SDS011;3740;50.700;7.184;2023-09-08T11:29:46;4.00;;;3.70;;
7398;SDS011;3740;50.700;7.184;2023-09-08T11:32:12;4.20;;;3.90;;
7398;SDS011;3740;50.700;7.184;2023-09-08T11:34:38;4.40;;;4.10;;
7398;SDS011;3740;50.700;7.184;2023-09-08T11:37:09;4.20;;;3.90;;
7398;SDS011;3740;50.700;7.184;2023-09-08T11:39:39;4.75;;;4.30;;
7398;SDS011;3740;50.700;7.184;2023-09-08T11:42:05;3.90;;;3.60;;
7398;SDS011;3740;50.700;7.184;2023-09-08T11:44:32;4.30;;;4.00;;
7398;SDS011;3740;50.700;7.184;2023-09-08T11:47:00;4.78;;;4.47;;
7398;SDS011;3740;50.700;7.184;2023-09-08T11:49:32;4.95;;;4.25;;
7398;SDS011;3740;50.700;7.184;2023-09-08T11:51:58;4.43;;;4.13;;
7398;SDS011;3740;50.700;7.184;2023-09-08T11:54:24;4.20;;;3.95;;
7398;SDS011;3740;50.700;7.184;2023-09-08T11:56:50;4.05;;;3.75;;
7398;SDS011;3740;50.700;7.184;2023-09-08T11:59:15;4.32;;;4.03;;
7398;SDS011;3740;50.700;7.184;2023-09-08T12:01:41;3.65;;;3.40;;
7398;SDS011;3740;50.700;7.184;2023-09-08T12:04:07;4.45;;;4.05;;
7398;SDS011;3740;50.700;7.184;2023-09-08T12:06:42;4.07;;;3.78;;
7398;SDS011;3740;50.700;7.184;2023-09-08T12:09:08;4.20;;;3.80;;
7398;SDS011;3740;50.700;7.184;2023-09-08T12:11:33;4.55;;;4.18;;
7398;SDS011;3740;50.700;7.184;2023-09-08T12:14:06;4.47;;;4.00;;
7398;SDS011;3740;50.700;7.184;2023-09-08T12:16:33;4.55;;;4.15;;
7398;SDS011;3740;50.700;7.184;2023-09-08T12:18:59;4.43;;;4.13;;
7398;SDS011;3740;50.700;7.184;2023-09-08T12:21:24;4.75;;;4.10;;
7398;SDS011;3740;50.700;7.184;2023-09-08T12:23:50;4.40;;;4.00;;
7398;SDS011;3740;50.700;7.184;2023-09-08T12:26:17;4.72;;;4.32;;
7398;SDS011;3740;50.700;7.184;2023-09-08T12:28:44;4.38;;;4.07;;
7398;SDS011;3740;50.700;7.184;2023-09-08T12:31:12;4.45;;;4.05;;
7398;SDS011;3740;50.700;7.184;2023-09-08T12:33:38;4.25;;;3.95;;
7398;SDS011;3740;50.700;7.184;2023-09-08T12:36:12;4.20;;;3.90;;
7398;SDS011;3740;50.700;7.184;2023-09-08T12:38:49;4.55;;;4.15;;
7398;SDS011;3740;50.700;7.184;2023-09-08T12:41:15;4.43;;;4.13;;
7398;SDS011;3740;50.700;7.184;2023-09-08T12:43:41;4.40;;;4.10;;
7398;SDS011;3740;50.700;7.184;2023-09-08T12:46:06;4.30;;;4.00;;
7398;SDS011;3740;50.700;7.184;2023-09-08T12:48:32;4.57;;;4.28;;
7398;SDS011;3740;50.700;7.184;2023-09-08T12:50:58;4.93;;;4.53;;
7398;SDS011;3740;50.700;7.184;2023-09-08T12:53:23;4.70;;;4.30;;
7398;SDS011;3740;50.700;7.184;2023-09-08T12:55:49;4.47;;;4.07;;
7398;SDS011;3740;50.700;7.184;2023-09-08T12:58:16;4.85;;;4.45;;
7398;SDS011;3740;50.700;7.184;2023-09-08T13:00:45;4.75;;;4.35;;
7398;SDS011;3740;50.700;7.184;2023-09-08T13:03:10;5.10;;;4.70;;
7398;SDS011;3740;50.700;7.184;2023-09-08T13:05:36;6.05;;;4.93;;
7398;SDS011;3740;50.700;7.184;2023-09-08T13:08:03;4.95;;;4.50;;
7398;SDS011;3740;50.700;7.184;2023-09-08T13:10:29;5.22;;;4.70;;
7398;SDS011;3740;50.700;7.184;2023-09-08T13:12:55;5.47;;;4.97;;
7398;SDS011;3740;50.700;7.184;2023-09-08T13:15:20;4.75;;;4.32;;
7398;SDS011;3740;50.700;7.184;2023-09-08T13:17:46;6.38;;;4.55;;
7398;SDS011;3740;50.700;7.184;2023-09-08T13:20:11;5.05;;;4.65;;
7398;SDS011;3740;50.700;7.184;2023-09-08T13:22:37;4.65;;;4.35;;
7398;SDS011;3740;50.700;7.184;2023-09-08T13:25:03;5.47;;;4.93;;
7398;SDS011;3740;50.700;7.184;2023-09-08T13:27:29;5.43;;;4.93;;
7398;SDS011;3740;50.700;7.184;2023-09-08T13:29:54;7.25;;;5.13;;
7398;SDS011;3740;50.700;7.184;2023-09-08T13:32:32;5.25;;;4.75;;
7398;SDS011;3740;50.700;7.184;2023-09-08T13:34:57;5.07;;;4.60;;
7398;SDS011;3740;50.700;7.184;2023-09-08T13:37:23;5.57;;;4.82;;
7398;SDS011;3740;50.700;7.184;2023-09-08T13:39:48;5.03;;;4.63;;
7398;SDS011;3740;50.700;7.184;2023-09-08T13:42:14;4.93;;;4.53;;
7398;SDS011;3740;50.700;7.184;2023-09-08T13:44:40;5.15;;;4.75;;
7398;SDS011;3740;50.700;7.184;2023-09-08T13:47:06;4.93;;;4.45;;
7398;SDS011;3740;50.700;7.184;2023-09-08T13:49:31;5.30;;;4.45;;
7398;SDS011;3740;50.700;7.184;2023-09-08T13:51:57;4.28;;;3.97;;
7398;SDS011;3740;50.700;7.184;2023-09-08T13:54:22;5.18;;;4.78;;
7398;SDS011;3740;50.700;7.184;2023-09-08T13:56:57;4.85;;;4.45;;
7398;SDS011;3740;50.700;7.184;2023-09-08T13:59:28;4.60;;;4.30;;
7398;SDS011;3740;50.700;7.184;2023-09-08T14:01:54;4.80;;;4.40;;
7398;SDS011;3740;50.700;7.184;2023-09-08T14:04:20;5.40;;;4.60;;
7398;SDS011;3740;50.700;7.184;2023-09-08T14:06:46;7.00;;;4.93;;
7398;SDS011;3740;50.700;7.184;2023-09-08T14:09:12;6.32;;;4.90;;
7398;SDS011;3740;50.700;7.184;2023-09-08T14:11:38;5.80;;;4.90;;
7398;SDS011;3740;50.700;7.184;2023-09-08T14:14:03;4.90;;;4.43;;
7398;SDS011;3740;50.700;7.184;2023-09-08T14:16:29;5.13;;;4.72;;
7398;SDS011;3740;50.700;7.184;2023-09-08T14:18:54;5.13;;;4.63;;
7398;SDS011;3740;50.700;7.184;2023-09-08T14:21:20;4.80;;;4.50;;
7398;SDS011;3740;50.700;7.184;2023-09-08T14:23:46;5.00;;;4.50;;
7398;SDS011;3740;50.700;7.184;2023-09-08T14:26:11;5.07;;;4.68;;
7398;SDS011;3740;50.700;7.184;2023-09-08T14:28:37;5.00;;;4.60;;
7398;SDS011;3740;50.700;7.184;2023-09-08T14:31:03;5.10;;;4.70;;
7398;SDS011;3740;50.700;7.184;2023-09-08T14:33:29;4.82;;;4.43;;
7398;SDS011;3740;50.700;7.184;2023-09-08T14:35:54;5.15;;;4.75;;
7398;SDS011;3740;50.700;7.184;2023-09-08T14:38:21;5.05;;;4.65;;
7398;SDS011;3740;50.700;7.184;2023-09-08T14:41:02;5.25;;;4.70;;
7398;SDS011;3740;50.700;7.184;2023-09-08T14:43:28;4.90;;;4.50;;
7398;SDS011;3740;50.700;7.184;2023-09-08T14:45:54;4.78;;;4.47;;
7398;SDS011;3740;50.700;7.184;2023-09-08T14:48:22;5.68;;;4.88;;
7398;SDS011;3740;50.700;7.184;2023-09-08T14:50:48;5.50;;;5.00;;
7398;SDS011;3740;50.700;7.184;2023-09-08T14:53:13;4.85;;;4.53;;
7398;SDS011;3740;50.700;7.184;2023-09-08T14:55:39;5.18;;;4.78;;
7398;SDS011;3740;50.700;7.184;2023-09-08T14:58:05;5.30;;;4.80;;
7398;SDS011;3740;50.700;7.184;2023-09-08T15:00:31;4.43;;;4.10;;
7398;SDS011;3740;50.700;7.184;2023-09-08T15:02:56;4.75;;;4.35;;
7398;SDS011;3740;50.700;7.184;2023-09-08T15:05:22;5.88;;;4.57;;
7398;SDS011;3740;50.700;7.184;2023-09-08T15:07:48;5.30;;;4.40;;
7398;SDS011;3740;50.700;7.184;2023-09-08T15:10:13;5.03;;;4.63;;
7398;SDS011;3740;50.700;7.184;2023-09-08T15:12:39;4.80;;;4.40;;
7398;SDS011;3740;50.700;7.184;2023-09-08T15:15:05;5.28;;;4.80;;
7398;SDS011;3740;50.700;7.184;2023-09-08T15:17:31;5.07;;;4.63;;
7398;SDS011;3740;50.700;7.184;2023-09-08T15:19:56;5.60;;;5.10;;